Bookmark and Share
Track history (hours):
 

Hsc Superjet

Last reported at 2014-Apr-16 15:21 UTC. Time now 2014-Apr-16 22:25 UTC.
Position N 40°50' E 014°17'.

Length 44 m; draft 1.4 m.

Type: High speed craft. MMSI: 247540000.

NotesDate/timePositionNaut miles runAvg speedWind from/ knotsBaromVisibWave heightAir tempDewpointWater temp
2014-Apr-16 15:21N 40°50' E 014°17'1620.3
2014-Apr-16 14:33N 40°33' E 014°14'15 7.0
2014-Apr-16 12:23N 40°48' E 014°17'1512.4
2014-Apr-16 11:10N 40°33' E 014°14'0 0.1
2014-Apr-16 10:33N 40°33' E 014°14'9 0.5
2014-Apr-15 15:33N 40°43' E 014°16'8 7.5
2014-Apr-15 14:31N 40°35' E 014°18'2 0.5
2014-Apr-15 10:31N 40°34' E 014°15'1 0.2
2014-Apr-15 06:34N 40°33' E 014°15'0 0.0
2014-Apr-14 13:31N 40°33' E 014°14'0 0.0
2014-Apr-14 09:33N 40°33' E 014°14'10 0.5
2014-Apr-13 15:33N 40°43' E 014°17'10 9.5
2014-Apr-13 14:31N 40°33' E 014°14'14 6.5
2014-Apr-13 12:20N 40°47' E 014°17'1418.0
2014-Apr-13 11:33N 40°33' E 014°14'0 0.0
2014-Apr-13 10:33N 40°33' E 014°14'9 0.5
2014-Apr-12 15:33N 40°42' E 014°16'7 6.5
2014-Apr-12 14:29N 40°36' E 014°18'3 3.4
2014-Apr-12 13:32N 40°33' E 014°14'1715.8
2014-Apr-12 12:28N 40°50' E 014°16'1718.3
2014-Apr-12 11:33N 40°33' E 014°14'1 0.7
2014-Apr-12 10:34N 40°34' E 014°15'13 0.7
2014-Apr-11 15:16N 40°47' E 014°17'1416.1
2014-Apr-11 14:24N 40°33' E 014°14'13 6.0
2014-Apr-11 12:16N 40°46' E 014°17'1315.4
2014-Apr-11 11:25N 40°33' E 014°14'0 0.0
2014-Apr-11 10:30N 40°33' E 014°14'16 0.8
2014-Apr-10 15:20N 40°49' E 014°17'1619.9
2014-Apr-10 14:32N 40°33' E 014°14'12 5.4
2014-Apr-10 12:13N 40°46' E 014°17'12 7.1
2014-Apr-10 10:28N 40°33' E 014°14'17 0.9
2014-Apr-09 15:29N 40°50' E 014°17'1716.6
2014-Apr-09 14:29N 40°33' E 014°14'17 8.3
2014-Apr-09 12:28N 40°50' E 014°16'1718.2
2014-Apr-09 11:33N 40°33' E 014°14'0 0.0
2014-Apr-09 10:33N 40°33' E 014°14'0 0.1
2014-Apr-09 09:26N 40°33' E 014°14'1614.0
2014-Apr-09 08:17N 40°50' E 014°17'1620.5
2014-Apr-09 07:29N 40°33' E 014°14'16 1.0
2014-Apr-08 16:11N 40°49' E 014°17'1625.3
2014-Apr-08 15:33N 40°33' E 014°14'4 3.8
2014-Apr-08 14:33N 40°36' E 014°18'4 3.6
2014-Apr-08 13:32N 40°33' E 014°14'9 0.4
2014-Apr-07 15:33N 40°42' E 014°17'6 6.4
2014-Apr-07 14:33N 40°38' E 014°23'8 7.7
2014-Apr-07 13:33N 40°33' E 014°14'15 6.8
2014-Apr-07 11:19N 40°49' E 014°17'1518.9
2014-Apr-07 10:31N 40°33' E 014°14'1612.1
2014-Apr-07 09:14N 40°49' E 014°17'1622.0
2014-Apr-07 08:31N 40°33' E 014°14'  

Dump ship's entire track history

sailing weather and tide predictions

Hsc Superjet — IINO — position and weather